Observation data for Graham on 07/12/2020      Previous  Date  Next       Current Mesonet Observations  Soil Data  Daily Summary Page  Observations in Plain Language
KGHS 120500Z 18015G22KT 33/10 A2998 RMK A01 T03290096  RH  025%=      5-min Rain = 0
KGHS 120505Z 18016G22KT 33/10 A2998 RMK A01 T03270097  RH  025%=      5-min Rain = 0
KGHS 120510Z 18018G26KT 33/10 A2998 RMK A01 T03280096  RH  025%=      5-min Rain = 0
KGHS 120515Z 18019G26KT 33/10 A2998 RMK A01 T03280097  RH  025%=      5-min Rain = 0
KGHS 120520Z 18017G27KT 33/10 A2998 RMK A01 T03280097  RH  025%=      5-min Rain = 0
KGHS 120525Z 18019G26KT 33/10 A2997 RMK A01 T03270098  RH  025%=      5-min Rain = 0
KGHS 120530Z 18018G24KT 33/10 A2997 RMK A01 T03260098  RH  025%=      5-min Rain = 0
KGHS 120535Z 18018G23KT 33/10 A2998 RMK A01 T03260098  RH  026%=      5-min Rain = 0
KGHS 120540Z 19015G26KT 32/10 A2998 RMK A01 T03230099  RH  026%=      5-min Rain = 0
KGHS 120545Z 18017G27KT 32/10 A2997 RMK A01 T03220099  RH  026%=      5-min Rain = 0
KGHS 120550Z 19019G26KT 32/10 A2997 RMK A01 T03240098  RH  026%=      5-min Rain = 0
KGHS 120555Z 19019G26KT 33/10 A2997 RMK A01 T03250098  RH  025%=      5-min Rain = 0
KGHS 120600Z 19017G24KT 33/10 A2997 RMK A01 T03270098  RH  025%=      5-min Rain = 0
KGHS 120605Z 19017G23KT 33/10 A2997 RMK A01 T03250098  RH  026%=      5-min Rain = 0
KGHS 120610Z 19017G25KT 32/10 A2997 RMK A01 T03240098  RH  026%=      5-min Rain = 0
KGHS 120615Z 19014KT 32/10 A2998 RMK A01 T03230098  RH  026%=      5-min Rain = 0
KGHS 120620Z 19015G20KT 32/10 A2998 RMK A01 T03220098  RH  026%=      5-min Rain = 0
KGHS 120625Z 19017G23KT 32/10 A2998 RMK A01 T03220097  RH  026%=      5-min Rain = 0
KGHS 120630Z 19013KT 32/10 A2998 RMK A01 T03220097  RH  026%=      5-min Rain = 0
KGHS 120635Z 19014G20KT 32/10 A2998 RMK A01 T03210097  RH  026%=      5-min Rain = 0
KGHS 120640Z 19014G19KT 32/10 A2998 RMK A01 T03210097  RH  026%=      5-min Rain = 0
KGHS 120645Z 20013KT 32/10 A2998 RMK A01 T03200097  RH  026%=      5-min Rain = 0
KGHS 120650Z 20013G18KT 32/10 A2999 RMK A01 T03190097  RH  026%=      5-min Rain = 0
KGHS 120655Z 20014G19KT 32/10 A2999 RMK A01 T03180098  RH  027%=      5-min Rain = 0
KGHS 120700Z 20012G17KT 32/10 A2999 RMK A01 T03170099  RH  027%=      5-min Rain = 0
KGHS 120705Z 20010KT 32/10 A2999 RMK A01 T03150099  RH  027%=      5-min Rain = 0
KGHS 120710Z 20009KT 31/10 A30 RMK A01 T03130100  RH  028%=      5-min Rain = 0
KGHS 120715Z 21007KT 31/10 A30 RMK A01 T03110101  RH  028%=      5-min Rain = 0
KGHS 120720Z 23007G12KT 31/10 A3001 RMK A01 T03100101  RH  029%=      5-min Rain = 0
KGHS 120725Z 27005KT 31/10 A3002 RMK A01 T03080103  RH  029%=      5-min Rain = 0
KGHS 120730Z 32004KT 30/10 A3003 RMK A01 T03030104  RH  030%=      5-min Rain = 0
KGHS 120735Z 34004KT 30/10 A3003 RMK A01 T03010103  RH  030%=      5-min Rain = 0
KGHS 120740Z 35005KT 30/10 A3003 RMK A01 T03030103  RH  030%=      5-min Rain = 0
KGHS 120745Z 34006KT 30/10 A3004 RMK A01 T03040103  RH  030%=      5-min Rain = 0
KGHS 120750Z 35009KT 30/11 A3005 RMK A01 T03000105  RH  031%=      5-min Rain = 0
KGHS 120755Z 35010KT 29/11 A3005 RMK A01 T02930106  RH  032%=      5-min Rain = 0
KGHS 120800Z 36008KT 29/11 A3005 RMK A01 T02890107  RH  033%=      5-min Rain = 0
KGHS 120805Z 35004KT 29/11 A3004 RMK A01 T02890107  RH  034%=      5-min Rain = 0
KGHS 120810Z 30003KT 29/10 A3004 RMK A01 T02920104  RH  032%=      5-min Rain = 0
KGHS 120815Z 26003KT 30/10 A3003 RMK A01 T02970103  RH  031%=      5-min Rain = 0
KGHS 120820Z 24003KT 30/10 A3003 RMK A01 T02980103  RH  031%=      5-min Rain = 0
KGHS 120825Z 21004KT 30/10 A3003 RMK A01 T02980103  RH  031%=      5-min Rain = 0
KGHS 120830Z 17003KT 30/11 A3003 RMK A01 T02960105  RH  032%=      5-min Rain = 0
KGHS 120835Z 17001KT 29/11 A3003 RMK A01 T02920105  RH  032%=      5-min Rain = 0
KGHS 120840Z 32003KT 29/11 A3004 RMK A01 T02900106  RH  033%=      5-min Rain = 0
KGHS 120845Z 31005KT 29/10 A3004 RMK A01 T02890104  RH  033%=      5-min Rain = 0
KGHS 120850Z 30003KT 28/11 A3003 RMK A01 T02840107  RH  034%=      5-min Rain = 0
KGHS 120855Z 28002KT 28/11 A3003 RMK A01 T02820106  RH  034%=      5-min Rain = 0
KGHS 120900Z 33004KT 28/11 A3004 RMK A01 T02800109  RH  036%=      5-min Rain = 0
KGHS 120905Z 36007KT 27/11 A3004 RMK A01 T02730114  RH  039%=      5-min Rain = 0
KGHS 120910Z 35004KT 27/12 A3004 RMK A01 T02680115  RH  040%=      5-min Rain = 0
KGHS 120915Z 32002KT 27/12 A3003 RMK A01 T02680115  RH  040%=      5-min Rain = 0
KGHS 120920Z 32003KT 27/12 A3003 RMK A01 T02670115  RH  040%=      5-min Rain = 0
KGHS 120925Z 31003KT 27/11 A3003 RMK A01 T02710111  RH  038%=      5-min Rain = 0
KGHS 120930Z 30002KT 28/11 A3003 RMK A01 T02770108  RH  036%=      5-min Rain = 0
KGHS 120935Z 30002KT 28/11 A3003 RMK A01 T02810106  RH  035%=      5-min Rain = 0
KGHS 120940Z 29001KT 29/10 A3003 RMK A01 T02860102  RH  033%=      5-min Rain = 0
KGHS 120945Z 24001KT 29/10 A3003 RMK A01 T02910101  RH  032%=      5-min Rain = 0
KGHS 120950Z 24001KT 29/10 A3003 RMK A01 T02930101  RH  031%=      5-min Rain = 0
KGHS 120955Z 19002KT 29/10 A3002 RMK A01 T02930101  RH  031%=      5-min Rain = 0
KGHS 121000Z 18003KT 29/11 A3002 RMK A01 T02870106  RH  034%=      5-min Rain = 0
KGHS 121005Z 17002KT 28/11 A3002 RMK A01 T02780109  RH  036%=      5-min Rain = 0
KGHS 121010Z 17003KT 28/11 A3001 RMK A01 T02750108  RH  036%=      5-min Rain = 0
KGHS 121015Z 15003KT 28/11 A3001 RMK A01 T02760108  RH  036%=      5-min Rain = 0
KGHS 121020Z 16001KT 27/11 A3002 RMK A01 T02740111  RH  037%=      5-min Rain = 0
KGHS 121025Z 18003KT 27/11 A3002 RMK A01 T02730109  RH  037%=      5-min Rain = 0
KGHS 121030Z 18003KT 28/11 A3002 RMK A01 T02760107  RH  036%=      5-min Rain = 0
KGHS 121035Z 28002KT 27/11 A3003 RMK A01 T02720114  RH  039%=      5-min Rain = 0
KGHS 121040Z 32005KT 25/12 A3004 RMK A01 T02540122  RH  045%=      5-min Rain = 0
KGHS 121045Z 32007KT 25/12 A3004 RMK A01 T02480121  RH  047%=      5-min Rain = 0
KGHS 121050Z 31005KT 25/12 A3004 RMK A01 T02520117  RH  044%=      5-min Rain = 0
KGHS 121055Z 29004KT 26/11 A3004 RMK A01 T02610113  RH  041%=      5-min Rain = 0
KGHS 121100Z 26004KT 27/11 A3003 RMK A01 T02710106  RH  037%=      5-min Rain = 0
KGHS 121105Z 23005KT 28/10 A3003 RMK A01 T02780103  RH  035%=      5-min Rain = 0
KGHS 121110Z 21005KT 28/11 A3003 RMK A01 T02790106  RH  035%=      5-min Rain = 0
KGHS 121115Z 18004KT 28/11 A3003 RMK A01 T02760110  RH  037%=      5-min Rain = 0
KGHS 121120Z 13003KT 27/12 A3003 RMK A01 T02650119  RH  042%=      5-min Rain = 0
KGHS 121125Z 08003KT 26/12 A3003 RMK A01 T02550121  RH  045%=      5-min Rain = 0
KGHS 121130Z 11002KT 25/12 A3004 RMK A01 T02520120  RH  045%=      5-min Rain = 0
KGHS 121135Z 34007KT 25/13 A3004 RMK A01 T02500125  RH  047%=      5-min Rain = 0
KGHS 121140Z 35006KT 25/13 A3004 RMK A01 T02460127  RH  049%=      5-min Rain = 0
KGHS 121145Z 01004KT 25/12 A3004 RMK A01 T02510121  RH  046%=      5-min Rain = 0
KGHS 121150Z 35004KT 25/13 A3005 RMK A01 T02520126  RH  047%=      5-min Rain = 0
KGHS 121155Z 35008KT 25/12 A3005 RMK A01 T02490124  RH  047%=      5-min Rain = 0
KGHS 121200Z 00007KT 26/12 A3005 RMK A01 T02560122  RH  045%=      5-min Rain = 0
KGHS 121205Z 01005KT 26/12 A3005 RMK A01 T02620117  RH  042%=      5-min Rain = 0
KGHS 121210Z 03003KT 27/11 A3005 RMK A01 T02690112  RH  039%=      5-min Rain = 0
KGHS 121215Z 04003KT 28/11 A3005 RMK A01 T02750107  RH  036%=      5-min Rain = 0
KGHS 121220Z 05004KT 28/11 A3005 RMK A01 T02780108  RH  036%=      5-min Rain = 0
KGHS 121225Z 06005KT 28/11 A3005 RMK A01 T02770109  RH  036%=      5-min Rain = 0
KGHS 121230Z 06007KT 28/11 A3006 RMK A01 T02750113  RH  038%=      5-min Rain = 0
KGHS 121235Z 07007KT 27/12 A3006 RMK A01 T02710116  RH  039%=      5-min Rain = 0
KGHS 121240Z 09006KT 27/12 A3006 RMK A01 T02690119  RH  041%=      5-min Rain = 0
KGHS 121245Z 11006KT 27/12 A3006 RMK A01 T02680120  RH  041%=      5-min Rain = 0
KGHS 121250Z 12006KT 27/12 A3006 RMK A01 T02660122  RH  042%=      5-min Rain = 0
KGHS 121255Z 12004KT 26/12 A3006 RMK A01 T02630124  RH  044%=      5-min Rain = 0
KGHS 121300Z 12004KT 26/12 A3007 RMK A01 T02620123  RH  044%=      5-min Rain = 0
KGHS 121305Z 12004KT 26/12 A3007 RMK A01 T02630122  RH  043%=      5-min Rain = 0
KGHS 121310Z 11004KT 26/13 A3008 RMK A01 T02630129  RH  045%=      5-min Rain = 0
KGHS 121315Z 10006KT 26/13 A3008 RMK A01 T02630129  RH  045%=      5-min Rain = 0
KGHS 121320Z 09005KT 27/13 A3009 RMK A01 T02670128  RH  044%=      5-min Rain = 0
KGHS 121325Z 08004KT 27/13 A3009 RMK A01 T02720126  RH  042%=      5-min Rain = 0
KGHS 121330Z 07003KT 27/13 A301 RMK A01 T02730126  RH  042%=      5-min Rain = 0
KGHS 121335Z 07006KT 28/12 A3011 RMK A01 T02750122  RH  040%=      5-min Rain = 0
KGHS 121340Z 07008KT 28/12 A3011 RMK A01 T02760118  RH  039%=      5-min Rain = 0
KGHS 121345Z 08005KT 28/12 A3012 RMK A01 T02760117  RH  039%=      5-min Rain = 0
KGHS 121350Z 08006G11KT 28/12 A3012 RMK A01 T02760119  RH  039%=      5-min Rain = 0
KGHS 121355Z 08008KT 28/12 A3013 RMK A01 T02750120  RH  039%=      5-min Rain = 0
KGHS 121400Z 08011G16KT 27/12 A3013 RMK A01 T02740120  RH  040%=      5-min Rain = 0
KGHS 121405Z 08012G17KT 27/12 A3012 RMK A01 T02720120  RH  041%=      5-min Rain = 0
KGHS 121410Z 08013G19KT 27/12 A3012 RMK A01 T02690123  RH  042%=      5-min Rain = 0
KGHS 121415Z 08013G18KT 27/13 A3012 RMK A01 T02680125  RH  043%=      5-min Rain = 0
KGHS 121420Z 09014KT 27/13 A3012 RMK A01 T02670126  RH  043%=      5-min Rain = 0
KGHS 121425Z 09013KT 27/12 A3012 RMK A01 T02690124  RH  042%=      5-min Rain = 0
KGHS 121430Z 11014G22KT 27/12 A3011 RMK A01 T02720122  RH  041%=      5-min Rain = 0
KGHS 121435Z 11013G19KT 27/12 A3011 RMK A01 T02730121  RH  041%=      5-min Rain = 0
KGHS 121440Z 13013G18KT 28/12 A301 RMK A01 T02750121  RH  040%=      5-min Rain = 0
KGHS 121445Z 13014G20KT 28/12 A3009 RMK A01 T02810120  RH  038%=      5-min Rain = 0
KGHS 121450Z 14012G17KT 29/13 A301 RMK A01 T02870128  RH  039%=      5-min Rain = 0
KGHS 121455Z 14013G18KT 29/13 A301 RMK A01 T02890126  RH  038%=      5-min Rain = 0
KGHS 121500Z 13014KT 29/12 A3009 RMK A01 T02890123  RH  037%=      5-min Rain = 0
KGHS 121505Z 14014KT 29/12 A3009 RMK A01 T02880122  RH  037%=      5-min Rain = 0
KGHS 121510Z 15013KT 29/12 A3009 RMK A01 T02860123  RH  038%=      5-min Rain = 0
KGHS 121515Z 15014KT 29/12 A3009 RMK A01 T02870122  RH  038%=      5-min Rain = 0
KGHS 121520Z 15014KT 29/12 A3008 RMK A01 T02880121  RH  037%=      5-min Rain = 0
KGHS 121525Z 15016KT 29/12 A3007 RMK A01 T02910120  RH  036%=      5-min Rain = 0
KGHS 121530Z 15016KT 30/12 A3007 RMK A01 T02980115  RH  034%=      5-min Rain = 0
KGHS 121535Z 15013G18KT 30/12 A3007 RMK A01 T03000115  RH  033%=      5-min Rain = 0
KGHS 121540Z 15013KT 30/11 A3007 RMK A01 T02990114  RH  033%=      5-min Rain = 0
KGHS 121545Z 16014G19KT 30/11 A3006 RMK A01 T02990113  RH  033%=      5-min Rain = 0
KGHS 121550Z 15014KT 30/11 A3006 RMK A01 T02990112  RH  033%=      5-min Rain = 0
KGHS 121555Z 14010G16KT 30/11 A3006 RMK A01 T03000114  RH  033%=      5-min Rain = 0
KGHS 121600Z 15011KT 30/11 A3006 RMK A01 T03020113  RH  032%=      5-min Rain = 0
KGHS 121605Z 15010KT 30/11 A3006 RMK A01 T03040112  RH  032%=      5-min Rain = 0
KGHS 121610Z 15009KT 31/11 A3006 RMK A01 T03070112  RH  031%=      5-min Rain = 0
KGHS 121615Z 16012G17KT 31/11 A3006 RMK A01 T03100111  RH  030%=      5-min Rain = 0
KGHS 121620Z 16015G21KT 32/11 A3005 RMK A01 T03170111  RH  029%=      5-min Rain = 0
KGHS 121625Z 16013G18KT 33/11 A3005 RMK A01 T03250114  RH  029%=      5-min Rain = 0
KGHS 121630Z 16015KT 32/11 A3005 RMK A01 T03240114  RH  029%=      5-min Rain = 0
KGHS 121635Z 17014G19KT 32/12 A3005 RMK A01 T03190115  RH  030%=      5-min Rain = 0
KGHS 121640Z 17012G18KT 32/12 A3005 RMK A01 T03170116  RH  030%=      5-min Rain = 0
KGHS 121645Z 18013G19KT 32/12 A3005 RMK A01 T03180116  RH  030%=      5-min Rain = 0
KGHS 121650Z 18013G20KT 32/12 A3005 RMK A01 T03150115  RH  030%=      5-min Rain = 0
KGHS 121655Z 18011G17KT 32/12 A3005 RMK A01 T03160118  RH  031%=      5-min Rain = 0
KGHS 121700Z 18015KT 32/12 A3005 RMK A01 T03170117  RH  031%=      5-min Rain = 0
KGHS 121705Z 17013G21KT 32/12 A3005 RMK A01 T03180115  RH  030%=      5-min Rain = 0
KGHS 121710Z 18015G20KT 32/12 A3005 RMK A01 T03200116  RH  030%=      5-min Rain = 0
KGHS 121715Z 19016G21KT 32/12 A3005 RMK A01 T03230115  RH  029%=      5-min Rain = 0
KGHS 121720Z 19014G19KT 33/12 A3005 RMK A01 T03280117  RH  029%=      5-min Rain = 0
KGHS 121725Z 19014G20KT 33/12 A3005 RMK A01 T03340118  RH  028%=      5-min Rain = 0
KGHS 121730Z 18015G20KT 34/12 A3004 RMK A01 T03390116  RH  027%=      5-min Rain = 0
KGHS 121735Z 20016G23KT 34/11 A3004 RMK A01 T03400114  RH  026%=      5-min Rain = 0
KGHS 121740Z 19017KT 34/11 A3004 RMK A01 T03400112  RH  026%=      5-min Rain = 0
KGHS 121745Z 19016G21KT 34/11 A3004 RMK A01 T03420110  RH  025%=      5-min Rain = 0
KGHS 121750Z 20014KT 34/11 A3004 RMK A01 T03440111  RH  025%=      5-min Rain = 0
KGHS 121755Z 20013G19KT 35/11 A3004 RMK A01 T03470110  RH  025%=      5-min Rain = 0
KGHS 121800Z 20014G23KT 35/11 A3004 RMK A01 T03490109  RH  024%=      5-min Rain = 0
KGHS 121805Z 20016G22KT 34/10 A3003 RMK A01 T03430104  RH  024%=      5-min Rain = 0
KGHS 121810Z 19014G19KT 35/11 A3003 RMK A01 T03450109  RH  025%=      5-min Rain = 0
KGHS 121815Z 20015G20KT 35/11 A3003 RMK A01 T03520106  RH  023%=      5-min Rain = 0
KGHS 121820Z 20014KT 35/11 A3003 RMK A01 T03500108  RH  024%=      5-min Rain = 0
KGHS 121825Z 19012G18KT 36/11 A3003 RMK A01 T03560107  RH  023%=      5-min Rain = 0
KGHS 121830Z 19013G20KT 36/11 A3002 RMK A01 T03570106  RH  023%=      5-min Rain = 0
KGHS 121835Z 20016KT 36/10 A3002 RMK A01 T03570096  RH  021%=      5-min Rain = 0
KGHS 121840Z 19013KT 36/09 A3002 RMK A01 T03580091  RH  020%=      5-min Rain = 0
KGHS 121845Z 19014KT 36/10 A3002 RMK A01 T03600095  RH  021%=      5-min Rain = 0
KGHS 121850Z 20015G20KT 36/09 A3002 RMK A01 T03640085  RH  019%=      5-min Rain = 0
KGHS 121855Z 21015G20KT 37/08 A3001 RMK A01 T03660081  RH  018%=      5-min Rain = 0
KGHS 121900Z 20016G22KT 37/08 A3001 RMK A01 T03670076  RH  017%=      5-min Rain = 0
KGHS 121905Z 18015G22KT 37/08 A3001 RMK A01 T03660076  RH  017%=      5-min Rain = 0
KGHS 121910Z 18013G20KT 37/08 A30 RMK A01 T03700082  RH  018%=      5-min Rain = 0
KGHS 121915Z 20013G19KT 38/08 A30 RMK A01 T03760080  RH  017%=      5-min Rain = 0
KGHS 121920Z 19013G19KT 38/08 A30 RMK A01 T03770076  RH  016%=      5-min Rain = 0
KGHS 121925Z 20015G20KT 38/07 A30 RMK A01 T03760067  RH  015%=      5-min Rain = 0
KGHS 121930Z 20016G22KT 38/07 A2999 RMK A01 T03750066  RH  016%=      5-min Rain = 0
KGHS 121935Z 19013G18KT 38/07 A2999 RMK A01 T03770067  RH  015%=      5-min Rain = 0
KGHS 121940Z 20014G19KT 38/07 A2999 RMK A01 T03790065  RH  015%=      5-min Rain = 0
KGHS 121945Z 19013G19KT 38/07 A2999 RMK A01 T03790072  RH  016%=      5-min Rain = 0
KGHS 121950Z 19015G21KT 38/07 A2998 RMK A01 T03800074  RH  016%=      5-min Rain = 0
KGHS 121955Z 19014KT 38/06 A2998 RMK A01 T03790064  RH  015%=      5-min Rain = 0
KGHS 122000Z 20014G19KT 38/06 A2998 RMK A01 T03820059  RH  014%=      5-min Rain = 0
KGHS 122005Z 20017G23KT 38/06 A2998 RMK A01 T03820055  RH  014%=      5-min Rain = 0
KGHS 122010Z 20014G20KT 38/05 A2998 RMK A01 T03810048  RH  013%=      5-min Rain = 0
KGHS 122015Z 20011G16KT 38/06 A2997 RMK A01 T03830058  RH  014%=      5-min Rain = 0
KGHS 122020Z 20015G21KT 39/05 A2997 RMK A01 T03870053  RH  013%=      5-min Rain = 0
KGHS 122025Z 19013G20KT 38/06 A2997 RMK A01 T03840059  RH  014%=      5-min Rain = 0
KGHS 122030Z 19015G22KT 39/06 A2996 RMK A01 T03850057  RH  014%=      5-min Rain = 0
KGHS 122035Z 20015G21KT 39/05 A2996 RMK A01 T03860051  RH  013%=      5-min Rain = 0
KGHS 122040Z 19013G19KT 39/05 A2996 RMK A01 T03890048  RH  013%=      5-min Rain = 0
KGHS 122045Z 21013G18KT 39/05 A2996 RMK A01 T03900047  RH  012%=      5-min Rain = 0
KGHS 122050Z 20013G18KT 39/05 A2996 RMK A01 T03900047  RH  012%=      5-min Rain = 0
KGHS 122055Z 21012KT 39/05 A2996 RMK A01 T03920047  RH  012%=      5-min Rain = 0
KGHS 122100Z 20012G19KT 39/05 A2995 RMK A01 T03920046  RH  012%=      5-min Rain = 0
KGHS 122105Z 20012G17KT 39/05 A2995 RMK A01 T03930046  RH  012%=      5-min Rain = 0
KGHS 122110Z 19011G16KT 39/05 A2995 RMK A01 T03940045  RH  012%=      5-min Rain = 0
KGHS 122115Z 19014G22KT 40/04 A2994 RMK A01 T03960044  RH  012%=      5-min Rain = 0
KGHS 122120Z 19013KT 39/04 A2994 RMK A01 T03930039  RH  012%=      5-min Rain = 0
KGHS 122125Z 19014G20KT 40/04 A2994 RMK A01 T03950038  RH  011%=      5-min Rain = 0
KGHS 122130Z 20013G19KT 40/04 A2994 RMK A01 T03970037  RH  011%=      5-min Rain = 0
KGHS 122135Z 19011KT 40/04 A2994 RMK A01 T03970036  RH  011%=      5-min Rain = 0
KGHS 122140Z 19011KT 40/04 A2993 RMK A01 T03960036  RH  011%=      5-min Rain = 0
KGHS 122145Z 19012G17KT 40/03 A2993 RMK A01 T03980034  RH  011%=      5-min Rain = 0
KGHS 122150Z 18010G18KT 40/03 A2993 RMK A01 T03960034  RH  011%=      5-min Rain = 0
KGHS 122155Z 18013G21KT 40/04 A2993 RMK A01 T03970038  RH  011%=      5-min Rain = 0
KGHS 122200Z 19013G19KT 40/04 A2993 RMK A01 T03970038  RH  011%=      5-min Rain = 0
KGHS 122205Z 19011G16KT 40/04 A2993 RMK A01 T03990039  RH  011%=      5-min Rain = 0
KGHS 122210Z 18013KT 40/04 A2993 RMK A01 T04000040  RH  011%=      5-min Rain = 0
KGHS 122215Z 18012G19KT 40/04 A2993 RMK A01 T03970038  RH  011%=      5-min Rain = 0
KGHS 122220Z 19012G18KT 40/04 A2992 RMK A01 T03950038  RH  011%=      5-min Rain = 0
KGHS 122225Z 20010KT 40/04 A2992 RMK A01 T03980040  RH  011%=      5-min Rain = 0
KGHS 122230Z 20013G19KT 40/04 A2992 RMK A01 T03980040  RH  011%=      5-min Rain = 0
KGHS 122235Z 19009G14KT 40/04 A2992 RMK A01 T03970040  RH  011%=      5-min Rain = 0
KGHS 122240Z 19010KT 40/04 A2992 RMK A01 T04000040  RH  011%=      5-min Rain = 0
KGHS 122245Z 20013G19KT 40/04 A2992 RMK A01 T03980039  RH  011%=      5-min Rain = 0
KGHS 122250Z 20013KT 40/04 A2991 RMK A01 T03950037  RH  011%=      5-min Rain = 0
KGHS 122255Z 19013G18KT 40/04 A2991 RMK A01 T03950039  RH  011%=      5-min Rain = 0
KGHS 122300Z 16013G18KT 40/04 A2991 RMK A01 T03950039  RH  011%=      5-min Rain = 0
KGHS 122305Z 18009G15KT 40/04 A2991 RMK A01 T03950039  RH  011%=      5-min Rain = 0
KGHS 122310Z 19012G19KT 40/04 A2991 RMK A01 T03960036  RH  011%=      5-min Rain = 0
KGHS 122315Z 18013G18KT 40/04 A2991 RMK A01 T03950036  RH  011%=      5-min Rain = 0
KGHS 122320Z 17013G20KT 40/04 A2991 RMK A01 T03950036  RH  011%=      5-min Rain = 0
KGHS 122325Z 17012G17KT 40/04 A2991 RMK A01 T03960036  RH  011%=      5-min Rain = 0
KGHS 122330Z 17015G20KT 39/04 A299 RMK A01 T03940037  RH  011%=      5-min Rain = 0
KGHS 122335Z 17015G21KT 39/04 A299 RMK A01 T03920035  RH  011%=      5-min Rain = 0
KGHS 122340Z 17014KT 39/04 A299 RMK A01 T03920036  RH  011%=      5-min Rain = 0
KGHS 122345Z 17014KT 39/03 A299 RMK A01 T03920033  RH  011%=      5-min Rain = 0
KGHS 122350Z 18010KT 39/04 A2991 RMK A01 T03920035  RH  011%=      5-min Rain = 0
KGHS 122355Z 17013G18KT 39/04 A2991 RMK A01 T03930037  RH  011%=      5-min Rain = 0
KGHS 130000Z 17012KT 39/04 A2991 RMK A01 T03920038  RH  011%=      5-min Rain = 0
KGHS 130005Z 18013G19KT 39/04 A2991 RMK A01 T03910035  RH  011%=      5-min Rain = 0
KGHS 130010Z 17013KT 39/03 A299 RMK A01 T03900033  RH  011%=      5-min Rain = 0
KGHS 130015Z 17013KT 39/03 A299 RMK A01 T03900033  RH  011%=      5-min Rain = 0
KGHS 130020Z 17010KT 39/04 A299 RMK A01 T03890035  RH  011%=      5-min Rain = 0
KGHS 130025Z 17013KT 39/04 A299 RMK A01 T03890038  RH  012%=      5-min Rain = 0
KGHS 130030Z 16012KT 39/04 A299 RMK A01 T03880037  RH  012%=      5-min Rain = 0
KGHS 130035Z 16013KT 39/04 A299 RMK A01 T03880037  RH  012%=      5-min Rain = 0
KGHS 130040Z 17011KT 39/04 A299 RMK A01 T03870038  RH  012%=      5-min Rain = 0
KGHS 130045Z 17011G16KT 39/04 A299 RMK A01 T03860035  RH  012%=      5-min Rain = 0
KGHS 130050Z 17012KT 39/03 A299 RMK A01 T03850033  RH  012%=      5-min Rain = 0
KGHS 130055Z 17011G16KT 38/04 A299 RMK A01 T03840035  RH  012%=      5-min Rain = 0
KGHS 130100Z 17013KT 38/04 A299 RMK A01 T03820036  RH  012%=      5-min Rain = 0
KGHS 130105Z 17012KT 38/04 A299 RMK A01 T03810037  RH  012%=      5-min Rain = 0
KGHS 130110Z 17011KT 38/04 A299 RMK A01 T03800039  RH  012%=      5-min Rain = 0
KGHS 130115Z 17011G16KT 38/04 A2991 RMK A01 T03780040  RH  013%=      5-min Rain = 0
KGHS 130120Z 16010KT 38/04 A2991 RMK A01 T03760042  RH  013%=      5-min Rain = 0
KGHS 130125Z 16009KT 37/04 A2991 RMK A01 T03720043  RH  013%=      5-min Rain = 0
KGHS 130130Z 16009KT 37/04 A2991 RMK A01 T03690043  RH  014%=      5-min Rain = 0
KGHS 130135Z 17010KT 37/04 A2991 RMK A01 T03670042  RH  014%=      5-min Rain = 0
KGHS 130140Z 17010KT 37/04 A2991 RMK A01 T03650042  RH  014%=      5-min Rain = 0
KGHS 130145Z 17010KT 36/04 A2991 RMK A01 T03630042  RH  014%=      5-min Rain = 0
KGHS 130150Z 17010KT 36/04 A2991 RMK A01 T03620041  RH  014%=      5-min Rain = 0
KGHS 130155Z 18011KT 36/04 A2991 RMK A01 T03620037  RH  014%=      5-min Rain = 0
KGHS 130200Z 18012KT 36/04 A299 RMK A01 T03630036  RH  013%=      5-min Rain = 0
KGHS 130205Z 18012KT 36/04 A299 RMK A01 T03630036  RH  013%=      5-min Rain = 0
KGHS 130210Z 18013KT 36/04 A299 RMK A01 T03630035  RH  013%=      5-min Rain = 0
KGHS 130215Z 18013KT 36/03 A299 RMK A01 T03640034  RH  013%=      5-min Rain = 0
KGHS 130220Z 18013KT 36/03 A299 RMK A01 T03630033  RH  013%=      5-min Rain = 0
KGHS 130225Z 18014KT 36/03 A299 RMK A01 T03610032  RH  013%=      5-min Rain = 0
KGHS 130230Z 18013KT 36/03 A299 RMK A01 T03590031  RH  013%=      5-min Rain = 0
KGHS 130235Z 18013KT 36/03 A299 RMK A01 T03600026  RH  013%=      5-min Rain = 0
KGHS 130240Z 18013G18KT 36/03 A299 RMK A01 T03600028  RH  013%=      5-min Rain = 0
KGHS 130245Z 19013KT 36/03 A299 RMK A01 T03550029  RH  013%=      5-min Rain = 0
KGHS 130250Z 19013KT 35/03 A2991 RMK A01 T03520029  RH  013%=      5-min Rain = 0
KGHS 130255Z 18012G18KT 35/03 A2991 RMK A01 T03490028  RH  014%=      5-min Rain = 0
KGHS 130300Z 18013G21KT 35/03 A299 RMK A01 T03510025  RH  013%=      5-min Rain = 0
KGHS 130305Z 18015G20KT 36/02 A299 RMK A01 T03560023  RH  013%=      5-min Rain = 0
KGHS 130310Z 18015KT 36/03 A2991 RMK A01 T03560025  RH  013%=      5-min Rain = 0
KGHS 130315Z 18014KT 35/03 A2991 RMK A01 T03520026  RH  013%=      5-min Rain = 0
KGHS 130320Z 19013KT 35/03 A2991 RMK A01 T03500026  RH  013%=      5-min Rain = 0
KGHS 130325Z 19014KT 35/03 A2991 RMK A01 T03480027  RH  014%=      5-min Rain = 0
KGHS 130330Z 19014KT 35/03 A2991 RMK A01 T03470026  RH  014%=      5-min Rain = 0
KGHS 130335Z 18016G21KT 35/03 A2991 RMK A01 T03480026  RH  013%=      5-min Rain = 0
KGHS 130340Z 18015G20KT 35/03 A2991 RMK A01 T03460026  RH  014%=      5-min Rain = 0
KGHS 130345Z 18017G24KT 35/03 A2991 RMK A01 T03480025  RH  013%=      5-min Rain = 0
KGHS 130350Z 18015G20KT 35/03 A2992 RMK A01 T03490027  RH  014%=      5-min Rain = 0
KGHS 130355Z 18016G22KT 35/03 A2991 RMK A01 T03470028  RH  014%=      5-min Rain = 0
KGHS 130400Z 18016G23KT 35/03 A2991 RMK A01 T03470029  RH  014%=      5-min Rain = 0
KGHS 130405Z 18016KT 35/03 A2991 RMK A01 T03470030  RH  014%=      5-min Rain = 0
KGHS 130410Z 18014G19KT 34/03 A2992 RMK A01 T03440030  RH  014%=      5-min Rain = 0
KGHS 130415Z 18016G21KT 34/03 A2992 RMK A01 T03430029  RH  014%=      5-min Rain = 0
KGHS 130420Z 18015G20KT 34/03 A2992 RMK A01 T03410030  RH  014%=      5-min Rain = 0
KGHS 130425Z 18015G20KT 34/03 A2992 RMK A01 T03390030  RH  015%=      5-min Rain = 0
KGHS 130430Z 19015G21KT 34/03 A2992 RMK A01 T03380031  RH  015%=      5-min Rain = 0
KGHS 130435Z 19017G25KT 34/03 A2992 RMK A01 T03360031  RH  015%=      5-min Rain = 0
KGHS 130440Z 19016G21KT 34/03 A2992 RMK A01 T03380030  RH  015%=      5-min Rain = 0
KGHS 130445Z 19016G23KT 34/03 A2992 RMK A01 T03380028  RH  014%=      5-min Rain = 0
KGHS 130450Z 19016KT 34/03 A2992 RMK A01 T03380028  RH  014%=      5-min Rain = 0
KGHS 130455Z 19016G22KT 34/03 A2992 RMK A01 T03370028  RH  015%=      5-min Rain = 0

Page generated in 0.0207 seconds.